Maersk Shenzhen — D5LD3 — position and weather

sailwx.info

Track history (hours):
 
Tides and Currents Weather Stations Pressure Air Temp Water Temp Dewpoint Dewpoint Depression Visibility Wind Speed Wind Dir Waves Ship Positions

Maersk Shenzhen

Last reported at 2018-Aug-16 09:10 UTC. Time now 2018-Aug-17 11:13 UTC.
Position N 40°48' W 029°49'.

Length 324 m; draft 14.2 m.

Type: Cargo ship. MMSI: 636017474.

Date/timePositionNaut miles runAvg speedWind from/ knotsBaromVisibWave heightAir tempDewpointWater temp
2018-Aug-16 09:10N 40°48' W 029°49'1418.8
2018-Aug-16 08:25N 40°46' W 029°30'818.6
2018-Aug-16 08:00N 40°45' W 029°20'1118.9
2018-Aug-16 07:25N 40°43' W 029°06'2218.9
2018-Aug-16 06:15N 40°39' W 028°38'3619.3
2018-Aug-16 04:24N 40°32' W 027°51'1919.5
2018-Aug-16 03:27N 40°29' W 027°27'3319.2
2018-Aug-16 01:44N 40°23' W 026°45'419.3
2018-Aug-16 01:30N 40°22' W 026°39'52719.2
2018-Aug-14 22:06N 38°08' W 015°40'2519.0
2018-Aug-14 20:46N 38°01' W 015°10'519.3
2018-Aug-14 20:30N 37°59' W 015°03'1319.4
2018-Aug-14 19:50N 37°55' W 014°48'619.4
2018-Aug-14 19:30N 37°53' W 014°40'1019.4
2018-Aug-14 18:59N 37°50' W 014°28'1119.2
2018-Aug-14 18:25N 37°46' W 014°15'20119.1
2018-Aug-14 07:55N 36°37' W 010°19'919.1
2018-Aug-14 07:28N 36°34' W 010°09'919.0
2018-Aug-14 07:00N 36°30' W 009°58'918.9
2018-Aug-14 06:30N 36°27' W 009°48'1019.0
2018-Aug-14 06:00N 36°23' W 009°37'1019.0
2018-Aug-14 05:30N 36°19' W 009°26'1319.2
2018-Aug-14 04:48N 36°17' W 009°09'818.7
2018-Aug-14 04:23N 36°16' W 009°00'919.1
2018-Aug-14 03:56N 36°15' W 008°49'819.3
2018-Aug-14 03:30N 36°14' W 008°39'1219.3
2018-Aug-14 02:53N 36°12' W 008°25'719.5
2018-Aug-14 02:30N 36°11' W 008°15'1019.2
2018-Aug-14 02:00N 36°10' W 008°04'1019.1
2018-Aug-14 01:30N 36°09' W 007°52'1319.0
2018-Aug-14 00:49N 36°07' W 007°36'719.5
2018-Aug-14 00:26N 36°06' W 007°27'819.4
2018-Aug-14 00:00N 36°05' W 007°17'1019.0
2018-Aug-13 23:30N 36°03' W 007°05'1018.9
2018-Aug-13 23:00N 36°02' W 006°53'1018.7
2018-Aug-13 22:29N 36°01' W 006°41'918.8
2018-Aug-13 22:01N 35°60' W 006°30'1018.7
2018-Aug-13 21:28N 35°58' W 006°18'918.5
2018-Aug-13 21:00N 35°58' W 006°07'917.6
2018-Aug-13 20:30N 35°58' W 005°56'816.6
2018-Aug-13 20:00N 35°58' W 005°46'915.1
2018-Aug-13 19:25N 35°58' W 005°35'614.9
2018-Aug-13 19:00N 35°59' W 005°28'815.2
2018-Aug-13 18:30N 36°02' W 005°19'917.1
2018-Aug-13 18:01N 36°05' W 005°10'25018.5
2018-Aug-13 04:30N 36°46' W 000°03'1019.4
2018-Aug-13 04:00N 36°48' E 000°09'1019.3
2018-Aug-13 03:30N 36°50' E 000°21'1019.0
2018-Aug-13 03:00N 36°52' E 000°33'918.9
2018-Aug-13 02:30N 36°53' E 000°44'918.8
2018-Aug-13 02:00N 36°55' E 000°56'918.3
2018-Aug-13 01:29N 36°57' E 001°08'918.0
2018-Aug-13 00:58N 36°59' E 001°19'818.0
2018-Aug-13 00:30N 37°01' E 001°29'918.1
2018-Aug-13 00:00N 37°03' E 001°40'918.5
2018-Aug-12 23:30N 37°04' E 001°52'1918.5
2018-Aug-12 22:28N 37°08' E 002°16'918.3
2018-Aug-12 21:58N 37°09' E 002°27'2318.8
2018-Aug-12 20:46N 37°15' E 002°54'519.7
2018-Aug-12 20:30N 37°15' E 003°01'1020.0
2018-Aug-12 20:00N 37°17' E 003°13'1120.1
2018-Aug-12 19:27N 37°19' E 003°27'1120.1
2018-Aug-12 18:56N 37°21' E 003°40'920.0
2018-Aug-12 18:30N 37°22' E 003°50'1420.0
2018-Aug-12 17:49N 37°25' E 004°07'619.8
2018-Aug-12 17:30N 37°26' E 004°15'1019.7
2018-Aug-12 17:00N 37°28' E 004°27'1019.5
2018-Aug-12 16:30N 37°30' E 004°39'1019.2
2018-Aug-12 16:00N 37°31' E 004°51'1019.0
2018-Aug-12 15:30N 37°32' E 005°03'918.8
2018-Aug-12 15:01N 37°32' E 005°15'1019.3
2018-Aug-12 14:30N 37°33' E 005°27'2120.1
2018-Aug-12 13:29N 37°34' E 005°53'  
2018-Aug-09 21:38N 32°24' E 030°07'9419.0
2018-Aug-09 16:42N 31°49' E 031°49'418.3
2018-Aug-09 16:29N 31°48' E 031°54'817.5
2018-Aug-09 16:01N 31°43' E 032°02'917.8
2018-Aug-09 15:30N 31°36' E 032°09'917.8
2018-Aug-09 15:00N 31°31' E 032°17'815.4
2018-Aug-09 14:30N 31°26' E 032°24'816.3
2018-Aug-09 14:01N 31°18' E 032°22'510.4
2018-Aug-09 13:30N 31°13' E 032°21'17 9.2
2018-Aug-09 11:41N 30°57' E 032°19'4 9.8
2018-Aug-09 11:18N 30°53' E 032°19'65 5.9
2018-Aug-09 00:21N 29°49' E 032°34'0 0.0
2018-Aug-08 23:48N 29°49' E 032°34'0 0.2
2018-Aug-08 20:56N 29°49' E 032°34'2311.5
2018-Aug-08 18:55N 29°26' E 032°40'  
Track history (hours):
 
Tides and Currents Weather Stations Pressure Air Temp Water Temp Dewpoint Dewpoint Depression Visibility Wind Speed Wind Dir Waves Ship Positions

Maersk Shenzhen

Last reported at 2018-Aug-16 09:10 UTC. Time now 2018-Aug-17 11:13 UTC.
Position N 40°48' W 029°49'.

Length 324 m; draft 14.2 m.

Type: Cargo ship. MMSI: 636017474.

Date/timePositionNaut miles runAvg speedWind from/ knotsBaromVisibWave heightAir tempDewpointWater temp
2018-Aug-16 09:10N 40°48' W 029°49'1418.8
2018-Aug-16 08:25N 40°46' W 029°30'818.6
2018-Aug-16 08:00N 40°45' W 029°20'1118.9
2018-Aug-16 07:25N 40°43' W 029°06'2218.9
2018-Aug-16 06:15N 40°39' W 028°38'3619.3
2018-Aug-16 04:24N 40°32' W 027°51'1919.5
2018-Aug-16 03:27N 40°29' W 027°27'3319.2
2018-Aug-16 01:44N 40°23' W 026°45'419.3
2018-Aug-16 01:30N 40°22' W 026°39'52719.2
2018-Aug-14 22:06N 38°08' W 015°40'2519.0
2018-Aug-14 20:46N 38°01' W 015°10'519.3
2018-Aug-14 20:30N 37°59' W 015°03'1319.4
2018-Aug-14 19:50N 37°55' W 014°48'619.4
2018-Aug-14 19:30N 37°53' W 014°40'1019.4
2018-Aug-14 18:59N 37°50' W 014°28'1119.2
2018-Aug-14 18:25N 37°46' W 014°15'20119.1
2018-Aug-14 07:55N 36°37' W 010°19'919.1
2018-Aug-14 07:28N 36°34' W 010°09'919.0
2018-Aug-14 07:00N 36°30' W 009°58'918.9
2018-Aug-14 06:30N 36°27' W 009°48'1019.0
2018-Aug-14 06:00N 36°23' W 009°37'1019.0
2018-Aug-14 05:30N 36°19' W 009°26'1319.2
2018-Aug-14 04:48N 36°17' W 009°09'818.7
2018-Aug-14 04:23N 36°16' W 009°00'919.1
2018-Aug-14 03:56N 36°15' W 008°49'819.3
2018-Aug-14 03:30N 36°14' W 008°39'1219.3
2018-Aug-14 02:53N 36°12' W 008°25'719.5
2018-Aug-14 02:30N 36°11' W 008°15'1019.2
2018-Aug-14 02:00N 36°10' W 008°04'1019.1
2018-Aug-14 01:30N 36°09' W 007°52'1319.0
2018-Aug-14 00:49N 36°07' W 007°36'719.5
2018-Aug-14 00:26N 36°06' W 007°27'819.4
2018-Aug-14 00:00N 36°05' W 007°17'1019.0
2018-Aug-13 23:30N 36°03' W 007°05'1018.9
2018-Aug-13 23:00N 36°02' W 006°53'1018.7
2018-Aug-13 22:29N 36°01' W 006°41'918.8
2018-Aug-13 22:01N 35°60' W 006°30'1018.7
2018-Aug-13 21:28N 35°58' W 006°18'918.5
2018-Aug-13 21:00N 35°58' W 006°07'917.6
2018-Aug-13 20:30N 35°58' W 005°56'816.6
2018-Aug-13 20:00N 35°58' W 005°46'915.1
2018-Aug-13 19:25N 35°58' W 005°35'614.9
2018-Aug-13 19:00N 35°59' W 005°28'815.2
2018-Aug-13 18:30N 36°02' W 005°19'917.1
2018-Aug-13 18:01N 36°05' W 005°10'25018.5
2018-Aug-13 04:30N 36°46' W 000°03'1019.4
2018-Aug-13 04:00N 36°48' E 000°09'1019.3
2018-Aug-13 03:30N 36°50' E 000°21'1019.0
2018-Aug-13 03:00N 36°52' E 000°33'918.9
2018-Aug-13 02:30N 36°53' E 000°44'918.8
2018-Aug-13 02:00N 36°55' E 000°56'918.3
2018-Aug-13 01:29N 36°57' E 001°08'918.0
2018-Aug-13 00:58N 36°59' E 001°19'818.0
2018-Aug-13 00:30N 37°01' E 001°29'918.1
2018-Aug-13 00:00N 37°03' E 001°40'918.5
2018-Aug-12 23:30N 37°04' E 001°52'1918.5
2018-Aug-12 22:28N 37°08' E 002°16'918.3
2018-Aug-12 21:58N 37°09' E 002°27'2318.8
2018-Aug-12 20:46N 37°15' E 002°54'519.7
2018-Aug-12 20:30N 37°15' E 003°01'1020.0
2018-Aug-12 20:00N 37°17' E 003°13'1120.1
2018-Aug-12 19:27N 37°19' E 003°27'1120.1
2018-Aug-12 18:56N 37°21' E 003°40'920.0
2018-Aug-12 18:30N 37°22' E 003°50'1420.0
2018-Aug-12 17:49N 37°25' E 004°07'619.8
2018-Aug-12 17:30N 37°26' E 004°15'1019.7
2018-Aug-12 17:00N 37°28' E 004°27'1019.5
2018-Aug-12 16:30N 37°30' E 004°39'1019.2
2018-Aug-12 16:00N 37°31' E 004°51'1019.0
2018-Aug-12 15:30N 37°32' E 005°03'918.8
2018-Aug-12 15:01N 37°32' E 005°15'1019.3
2018-Aug-12 14:30N 37°33' E 005°27'2120.1
2018-Aug-12 13:29N 37°34' E 005°53'  
2018-Aug-09 21:38N 32°24' E 030°07'9419.0
2018-Aug-09 16:42N 31°49' E 031°49'418.3
2018-Aug-09 16:29N 31°48' E 031°54'817.5
2018-Aug-09 16:01N 31°43' E 032°02'917.8
2018-Aug-09 15:30N 31°36' E 032°09'917.8
2018-Aug-09 15:00N 31°31' E 032°17'815.4
2018-Aug-09 14:30N 31°26' E 032°24'816.3
2018-Aug-09 14:01N 31°18' E 032°22'510.4
2018-Aug-09 13:30N 31°13' E 032°21'17 9.2
2018-Aug-09 11:41N 30°57' E 032°19'4 9.8
2018-Aug-09 11:18N 30°53' E 032°19'65 5.9
2018-Aug-09 00:21N 29°49' E 032°34'0 0.0
2018-Aug-08 23:48N 29°49' E 032°34'0 0.2
2018-Aug-08 20:56N 29°49' E 032°34'2311.5
2018-Aug-08 18:55N 29°26' E 032°40'  

Dump ship's entire track history